Strona główna
METAR-TAF:

METAR-TAF

Lotnisko :

Port lotniczy Xi’an-Xianyang

Xi'an, Chiny

Szerokość geograficzna: 34-26N, Długość geograficzna: 108-45E, wysokość: 479 m

Aktualna obserwacja pogody

Raport powstał 24 minut temu, godzina 14:00 UTC
Wiatr 2 kt od zachód
Temperatura 25°C
Wilgotność 79%
Ciśnienie 1006 hPa
Widzialność 10 km lub więcej
Brak chmur poniżej 1500 m i brak chmur cumulonimbus

METAR: ZLXY 191400Z 27001MPS CAVOK 25/21 Q1006 NOSIG

czas: 22:24 (14:24 UTC)

Prognoza

Raport powstał 5 godziny i 19 minut temu, godzina 09:05 UTC
Prognoza ważna od 19 godzina 12 UTC do 20 godzina 12 UTC
Wiatr 6 kt od południowy zachód
Widzialność: 3000 m
zmętnienie

TAF: ZLXY 190905Z 1912/2012 22003MPS 3000 HZ NSC TX33/2008Z TN20/1922Z

Obserwacja i prognoza pogody dla ponad 4000 lotnisk (raport METAR i TAF).

Dostępne stacje oznaczono żółtymi i czerwonymi punktami na mapie.

Najedź kursorem aby zobaczyć nazwę stacji.

Kliknij aby zobaczyć obserwacje i prognozy pogody.

Aby zmienić mapę: kliknij na zielony przycisk z czarnym krzyżykiem, aby powiększyć; na zielony przycisk z myślnikiem, aby pomniejszyć; na zielone strzałki, aby przejść do map sąsiednich.


METAR-TAF: